Weather at Charlevoix Municipal Airport

Public forecast

Using degrees Fahrenheit for public forecast. Weather courtesy of forecast.io.

Current aviation weather report (METAR) for Charlevoix Municipal Airport

Retrieved 2021/09/23 02:15 UTC (0 seconds ago):

KCVX 230215Z AUTO 02013G20KT 10SM CLR 14/03 A3009 RMK AO2 T01350034

Closest aviation forecast (TAF) to Charlevoix Municipal Airport

Closest forecast is Pellston Regional Airport of Emmet County Airport, 25.7 nm (47.6 km) NE. Retrieved 2021-09-23 00:22 UTC (2 hours ago):

TAF KPLN 222320Z 2300/2324 02011G20KT P6SM SCT035 BKN120 FM231200 02014G23KT 6SM -SHRA OVC025 FM231800 02013G22KT 4SM -SHRA BR OVC008